Terminal Aerodrome Forecast
Issued by NWS

Home | Current Version | Previous Version | Graphics & Text | Print | Product List | Glossary On
Versions: 1 2 3 4 5 6 7 8 9 10 11 12 13 14 15 16 17 18 19 20 21 22 23
526
FTUS43 KOAX 211557 AAB
TAFCDR
TAF AMD
KCDR 211557Z 2116/2212 04010KT P6SM VCSH BKN009 BKN040
     FM212100 13022G32KT P6SM BKN050
     FM220300 15022G32KT P6SM -SHRA BKN050=

USA.gov is the U.S. government's official web portal to all federal, state and local government web resources and services.